Chicago Bridge — H9NR — position and weather

sailwx.info

Track history (hours):
 
Tides and Currents Weather Stations Pressure Air Temp Water Temp Dewpoint Dewpoint Depression Visibility Wind Speed Wind Dir Waves Ship Positions

Chicago Bridge

Last reported at 2014-Dec-17 03:21 UTC. Time now 2014-Dec-21 20:50 UTC.
Position N 33°18' W 118°06'.

Length 279 m; draft 11.9 m.

Type: Ship (hazmat cat B). MMSI: 352018000.

Date/timePositionNaut miles runAvg speedWind from/ knotsBaromVisibWave heightAir tempDewpointWater temp
2014-Dec-17 03:21N 33°18' W 118°06'1412.1
2014-Dec-17 02:14N 33°31' W 118°11'1110.6
2014-Dec-17 01:09N 33°42' W 118°11'2 3.9
2014-Dec-17 00:33N 33°45' W 118°12'0 0.0
2014-Dec-16 16:24N 33°45' W 118°12'0 0.0
2014-Dec-16 10:23N 33°45' W 118°12'0 0.0
2014-Dec-16 07:26N 33°45' W 118°12'0 0.0
2014-Dec-16 06:32N 33°45' W 118°12'0 0.0
2014-Dec-16 05:09N 33°45' W 118°12'0 0.0
2014-Dec-15 22:17N 33°45' W 118°12'0 0.0
2014-Dec-15 18:32N 33°45' W 118°12'0 0.0
2014-Dec-15 17:20N 33°45' W 118°12'0 0.0
2014-Dec-15 08:32N 33°45' W 118°12'0 0.0
2014-Dec-15 05:17N 33°45' W 118°12'0 0.0
2014-Dec-15 01:04N 33°45' W 118°12'0 0.0
2014-Dec-14 21:16N 33°45' W 118°12'0 0.0
2014-Dec-14 02:10N 33°45' W 118°12'0 0.0
2014-Dec-14 01:31N 33°45' W 118°12'0 0.0
2014-Dec-13 21:19N 33°45' W 118°12'0 0.0
2014-Dec-13 19:04N 33°45' W 118°12'0 0.0
2014-Dec-13 18:28N 33°45' W 118°12'0 0.0
2014-Dec-13 17:06N 33°45' W 118°12'0 0.0
2014-Dec-13 15:24N 33°45' W 118°12'0 0.0
2014-Dec-13 10:12N 33°45' W 118°12'0 0.0
2014-Dec-13 08:06N 33°45' W 118°12'0 0.0
2014-Dec-13 07:33N 33°45' W 118°12'0 0.0
2014-Dec-13 06:33N 33°45' W 118°12'0 0.0
2014-Dec-13 04:18N 33°45' W 118°12'0 0.0
2014-Dec-13 03:30N 33°45' W 118°12'0 0.0
2014-Dec-13 02:30N 33°45' W 118°12'0 0.0
2014-Dec-13 01:33N 33°45' W 118°12'0 0.0
2014-Dec-12 21:24N 33°45' W 118°12'0 0.0
2014-Dec-12 20:27N 33°45' W 118°12'0 0.0
2014-Dec-12 19:30N 33°45' W 118°12'0 0.0
2014-Dec-12 18:33N 33°45' W 118°12'0 0.0
2014-Dec-12 17:15N 33°45' W 118°12'0 0.0
2014-Dec-12 15:33N 33°45' W 118°12'0 0.0
2014-Dec-12 14:21N 33°45' W 118°12'0 0.0
2014-Dec-12 13:18N 33°45' W 118°12'0 0.0
2014-Dec-12 12:27N 33°45' W 118°12'0 0.0
2014-Dec-12 04:08N 33°45' W 118°12'0 0.0
2014-Dec-12 01:32N 33°45' W 118°12'0 0.0
2014-Dec-12 00:06N 33°45' W 118°12'2 3.1
2014-Dec-11 23:34N 33°43' W 118°11'16 4.9
2014-Dec-11 20:11N 33°40' W 118°30'7 6.9
2014-Dec-11 19:08N 33°44' W 118°38'23613.0
2014-Dec-11 01:04N 35°44' W 122°45'1015.6
2014-Dec-11 00:25N 35°50' W 122°54'1415.2
2014-Dec-10 23:29N 35°60' W 123°08'8 4.1
2014-Dec-10 21:32N 36°05' W 123°14'  
Track history (hours):
 
Tides and Currents Weather Stations Pressure Air Temp Water Temp Dewpoint Dewpoint Depression Visibility Wind Speed Wind Dir Waves Ship Positions

Chicago Bridge

Last reported at 2014-Dec-17 03:21 UTC. Time now 2014-Dec-21 20:50 UTC.
Position N 33°18' W 118°06'.

Length 279 m; draft 11.9 m.

Type: Ship (hazmat cat B). MMSI: 352018000.

Date/timePositionNaut miles runAvg speedWind from/ knotsBaromVisibWave heightAir tempDewpointWater temp
2014-Dec-17 03:21N 33°18' W 118°06'1412.1
2014-Dec-17 02:14N 33°31' W 118°11'1110.6
2014-Dec-17 01:09N 33°42' W 118°11'2 3.9
2014-Dec-17 00:33N 33°45' W 118°12'0 0.0
2014-Dec-16 16:24N 33°45' W 118°12'0 0.0
2014-Dec-16 10:23N 33°45' W 118°12'0 0.0
2014-Dec-16 07:26N 33°45' W 118°12'0 0.0
2014-Dec-16 06:32N 33°45' W 118°12'0 0.0
2014-Dec-16 05:09N 33°45' W 118°12'0 0.0
2014-Dec-15 22:17N 33°45' W 118°12'0 0.0
2014-Dec-15 18:32N 33°45' W 118°12'0 0.0
2014-Dec-15 17:20N 33°45' W 118°12'0 0.0
2014-Dec-15 08:32N 33°45' W 118°12'0 0.0
2014-Dec-15 05:17N 33°45' W 118°12'0 0.0
2014-Dec-15 01:04N 33°45' W 118°12'0 0.0
2014-Dec-14 21:16N 33°45' W 118°12'0 0.0
2014-Dec-14 02:10N 33°45' W 118°12'0 0.0
2014-Dec-14 01:31N 33°45' W 118°12'0 0.0
2014-Dec-13 21:19N 33°45' W 118°12'0 0.0
2014-Dec-13 19:04N 33°45' W 118°12'0 0.0
2014-Dec-13 18:28N 33°45' W 118°12'0 0.0
2014-Dec-13 17:06N 33°45' W 118°12'0 0.0
2014-Dec-13 15:24N 33°45' W 118°12'0 0.0
2014-Dec-13 10:12N 33°45' W 118°12'0 0.0
2014-Dec-13 08:06N 33°45' W 118°12'0 0.0
2014-Dec-13 07:33N 33°45' W 118°12'0 0.0
2014-Dec-13 06:33N 33°45' W 118°12'0 0.0
2014-Dec-13 04:18N 33°45' W 118°12'0 0.0
2014-Dec-13 03:30N 33°45' W 118°12'0 0.0
2014-Dec-13 02:30N 33°45' W 118°12'0 0.0
2014-Dec-13 01:33N 33°45' W 118°12'0 0.0
2014-Dec-12 21:24N 33°45' W 118°12'0 0.0
2014-Dec-12 20:27N 33°45' W 118°12'0 0.0
2014-Dec-12 19:30N 33°45' W 118°12'0 0.0
2014-Dec-12 18:33N 33°45' W 118°12'0 0.0
2014-Dec-12 17:15N 33°45' W 118°12'0 0.0
2014-Dec-12 15:33N 33°45' W 118°12'0 0.0
2014-Dec-12 14:21N 33°45' W 118°12'0 0.0
2014-Dec-12 13:18N 33°45' W 118°12'0 0.0
2014-Dec-12 12:27N 33°45' W 118°12'0 0.0
2014-Dec-12 04:08N 33°45' W 118°12'0 0.0
2014-Dec-12 01:32N 33°45' W 118°12'0 0.0
2014-Dec-12 00:06N 33°45' W 118°12'2 3.1
2014-Dec-11 23:34N 33°43' W 118°11'16 4.9
2014-Dec-11 20:11N 33°40' W 118°30'7 6.9
2014-Dec-11 19:08N 33°44' W 118°38'23613.0
2014-Dec-11 01:04N 35°44' W 122°45'1015.6
2014-Dec-11 00:25N 35°50' W 122°54'1415.2
2014-Dec-10 23:29N 35°60' W 123°08'8 4.1
2014-Dec-10 21:32N 36°05' W 123°14'  

Dump ship's entire track history